Time;durP1;ratioP1;P1;durP2;ratioP2;P2;SDS_P1;SDS_P2;PMS_P1;PMS_P2;Temp;Humidity;BMP_temperature;BMP_pressure;BME280_temperature;BME280_humidity;BME280_pressure;Samples;Min_cycle;Max_cycle;Signal;HPM_P1;HPM_P2
2022/08/11 00:00:20;;;;;;;4.88;3.55;;;19.20;99.90;;;;;;5022909;28;20029;-60
2022/08/11 00:02:51;;;;;;;4.85;3.42;;;19.10;99.90;;;;;;5023278;28;20057;-58
2022/08/11 00:05:19;;;;;;;7.03;3.50;;;19.10;99.90;;;;;;5024933;28;20025;-57
2022/08/11 00:07:51;;;;;;;5.32;3.45;;;19.00;99.90;;;;;;5022750;28;20021;-58
2022/08/11 00:10:26;;;;;;;5.82;3.20;;;19.00;99.90;;;;;;5024083;28;20057;-57
2022/08/11 00:13:03;;;;;;;5.90;3.65;;;18.90;99.90;;;;;;5025205;28;20056;-60
2022/08/11 00:15:43;;;;;;;4.85;3.53;;;18.90;99.90;;;;;;5021366;28;20056;-60
2022/08/11 00:18:11;;;;;;;5.63;3.40;;;18.90;99.90;;;;;;5026357;28;20079;-61
2022/08/11 00:20:40;;;;;;;5.18;3.30;;;18.90;99.90;;;;;;5022505;28;20030;-61
2022/08/11 00:23:09;;;;;;;5.50;3.33;;;18.90;99.90;;;;;;5025250;28;20484;-61
2022/08/11 00:25:44;;;;;;;5.18;3.47;;;18.80;99.90;;;;;;5023279;28;20048;-61
2022/08/11 00:28:23;;;;;;;6.63;3.45;;;18.80;99.90;;;;;;5023862;28;20029;-59
2022/08/11 00:30:50;;;;;;;5.35;3.28;;;18.80;99.90;;;;;;5023567;28;20140;-59
2022/08/11 00:33:17;;;;;;;10.70;4.47;;;18.90;99.90;;;;;;5029463;28;20383;-60
2022/08/11 00:35:44;;;;;;;5.75;3.67;;;18.70;99.90;;;;;;5027034;28;20087;-59
2022/08/11 00:38:11;;;;;;;5.38;3.28;;;18.60;99.90;;;;;;5028577;28;20048;-59
2022/08/11 00:40:44;;;;;;;4.13;3.30;;;18.50;99.90;;;;;;5023681;28;20075;-60
2022/08/11 00:43:34;;;;;;;6.57;4.07;;;18.50;99.90;;;;;;5025751;28;20398;-59
2022/08/11 00:46:22;;;;;;;6.25;3.42;;;18.40;99.90;;;;;;5022907;28;20025;-59
2022/08/11 00:49:21;;;;;;;4.47;3.30;;;18.40;99.90;;;;;;5022971;28;20029;-59
2022/08/11 00:52:04;;;;;;;8.52;3.55;;;18.40;99.90;;;;;;5026097;28;20107;-58
2022/08/11 00:54:38;;;;;;;8.48;3.67;;;18.20;99.90;;;;;;5025005;28;20029;-58
2022/08/11 00:57:27;;;;;;;6.63;3.60;;;18.20;99.90;;;;;;5028767;28;20167;-61
2022/08/11 01:00:17;;;;;;;6.30;3.95;;;18.20;99.90;;;;;;4990736;28;20117;-60
2022/08/11 01:03:07;;;;;;;6.65;3.50;;;18.20;99.90;;;;;;5029042;28;20083;-60
2022/08/11 01:05:52;;;;;;;5.95;4.07;;;18.20;99.90;;;;;;5027514;28;20022;-60
2022/08/11 01:08:35;;;;;;;5.10;3.83;;;18.00;99.90;;;;;;5029072;28;20024;-60
2022/08/11 01:11:28;;;;;;;6.28;3.70;;;18.00;99.90;;;;;;5030812;28;20028;-60
2022/08/11 01:14:18;;;;;;;7.75;3.85;;;17.90;99.90;;;;;;5010104;28;20017;-60
2022/08/11 01:16:58;;;;;;;5.13;3.60;;;17.90;99.90;;;;;;5031241;28;20018;-60
2022/08/11 01:19:43;;;;;;;6.05;4.18;;;17.90;99.90;;;;;;5031360;28;20064;-60
2022/08/11 01:22:29;;;;;;;9.73;3.38;;;17.90;99.90;;;;;;5024498;28;20092;-60
2022/08/11 01:25:07;;;;;;;4.35;3.25;;;17.80;99.90;;;;;;5030440;28;20029;-60
2022/08/11 01:27:38;;;;;;;8.32;3.97;;;17.80;99.90;;;;;;5030073;28;20032;-59
2022/08/11 01:30:33;;;;;;;11.82;4.05;;;17.70;99.90;;;;;;5028931;28;20032;-59
2022/08/11 01:33:18;;;;;;;;;;;17.60;99.90;;;;;;5030304;28;20026;-60
2022/08/11 01:35:50;;;;;;;;;;;17.60;99.90;;;;;;5028318;28;19951;-60
2022/08/11 01:38:35;;;;;;;12.15;3.75;;;17.50;99.90;;;;;;5026685;28;19928;-61
2022/08/11 01:44:37;;;;;;;13.48;3.95;;;17.40;99.90;;;;;;5027621;28;20063;-60
2022/08/11 01:50:16;;;;;;;6.63;3.63;;;17.30;99.90;;;;;;5028091;28;20041;-60
2022/08/11 01:53:22;;;;;;;4.28;3.58;;;17.20;99.90;;;;;;5029336;28;20063;-59
2022/08/11 01:56:01;;;;;;;7.65;3.25;;;17.30;99.90;;;;;;5030569;28;20426;-58
2022/08/11 01:58:56;;;;;;;5.18;3.42;;;17.10;99.90;;;;;;5028610;28;20021;-60
2022/08/11 02:01:31;;;;;;;6.60;3.58;;;17.20;99.90;;;;;;5022259;28;20035;-59
2022/08/11 02:04:24;;;;;;;5.07;3.63;;;17.10;99.90;;;;;;5028053;28;20057;-60
2022/08/11 02:06:55;;;;;;;6.43;4.43;;;17.10;99.90;;;;;;5024708;28;20022;-60
2022/08/11 02:09:58;;;;;;;5.43;4.25;;;17.10;99.90;;;;;;5025860;28;20375;-60
2022/08/11 02:12:56;;;;;;;6.25;3.85;;;17.00;99.90;;;;;;5009357;28;20084;-59
2022/08/11 02:15:42;;;;;;;6.70;4.32;;;17.00;99.90;;;;;;5029315;28;20414;-60
2022/08/11 02:23:38;;;;;;;5.53;3.72;;;16.90;99.90;;;;;;5028033;28;20030;-61
2022/08/11 02:24:18;;;;;;;11.85;3.70;;;16.80;99.90;;;;;;5026447;28;20188;-59
2022/08/11 02:26:49;;;;;;;7.82;4.15;;;16.90;99.90;;;;;;5028743;28;20020;-61
2022/08/11 02:29:33;;;;;;;8.65;4.57;;;16.80;99.90;;;;;;5021225;28;20067;-58
2022/08/11 02:35:26;;;;;;;9.37;4.13;;;16.80;99.90;;;;;;5029062;28;20472;-60
2022/08/11 02:38:04;;;;;;;6.60;4.10;;;16.80;99.90;;;;;;5026693;28;20112;-60
2022/08/11 02:40:55;;;;;;;13.18;3.90;;;16.80;99.90;;;;;;5023674;28;20033;-62
2022/08/11 02:43:55;;;;;;;7.05;4.28;;;16.70;99.90;;;;;;5026606;28;20056;-60
2022/08/11 02:46:31;;;;;;;9.38;4.28;;;16.60;99.90;;;;;;5027437;28;20052;-60
2022/08/11 02:52:23;;;;;;;7.28;4.00;;;16.70;99.90;;;;;;5025211;28;20037;-59
2022/08/11 02:55:28;;;;;;;7.00;3.88;;;16.70;99.90;;;;;;5011796;28;20017;-59
2022/08/11 02:58:43;;;;;;;4.27;3.60;;;16.80;99.90;;;;;;5025502;28;20420;-59
2022/08/11 03:01:26;;;;;;;7.23;3.67;;;16.90;99.90;;;;;;4946907;28;20645;-60
2022/08/11 03:04:24;;;;;;;6.60;3.58;;;17.00;99.90;;;;;;5024316;28;20083;-60
2022/08/11 03:07:03;;;;;;;4.80;3.78;;;17.10;99.90;;;;;;4934730;28;20038;-59
2022/08/11 03:09:53;;;;;;;7.95;4.40;;;17.20;99.90;;;;;;5026809;28;20112;-58
2022/08/11 03:18:18;;;;;;;9.15;4.00;;;17.00;99.90;;;;;;5028758;28;20025;-60
2022/08/11 03:20:49;;;;;;;5.32;4.22;;;16.90;99.90;;;;;;5028878;28;20029;-59
2022/08/11 03:23:34;;;;;;;9.35;4.30;;;16.90;99.90;;;;;;5027369;28;20021;-61
2022/08/11 03:26:26;;;;;;;6.28;4.00;;;16.80;99.90;;;;;;5027711;28;20097;-61
2022/08/11 03:29:15;;;;;;;7.03;4.20;;;16.80;99.90;;;;;;5027821;28;20040;-60
2022/08/11 03:31:50;;;;;;;7.22;4.22;;;16.90;99.90;;;;;;5027369;28;20028;-59
2022/08/11 03:34:24;;;;;;;7.30;4.72;;;17.00;99.90;;;;;;5025665;28;20028;-61
2022/08/11 03:36:59;;;;;;;5.30;3.88;;;17.00;99.90;;;;;;5020679;28;20108;-57
2022/08/11 03:39:54;;;;;;;7.93;4.35;;;17.00;99.90;;;;;;5026174;28;20035;-58
2022/08/11 03:42:53;;;;;;;4.35;3.83;;;16.90;99.90;;;;;;5026611;28;20379;-60
2022/08/11 03:45:22;;;;;;;15.82;4.20;;;16.90;99.90;;;;;;5023064;28;20108;-61
2022/08/11 03:47:59;;;;;;;6.72;4.13;;;16.80;99.90;;;;;;5029246;28;20022;-61
2022/08/11 03:50:57;;;;;;;7.65;4.65;;;16.80;99.90;;;;;;5021821;28;20022;-61
2022/08/11 03:53:31;;;;;;;6.60;3.95;;;16.70;99.90;;;;;;5025809;28;20013;-60
2022/08/11 03:56:15;;;;;;;;;;;16.60;99.90;;;;;;5025075;28;20101;-61
2022/08/11 03:59:19;;;;;;;5.43;3.92;;;16.50;99.90;;;;;;5027265;28;19936;-61
2022/08/11 04:02:03;;;;;;;6.35;4.20;;;16.50;99.90;;;;;;5025838;28;20559;-61
2022/08/11 04:05:06;;;;;;;6.25;3.70;;;16.50;99.90;;;;;;5049205;23;20416;-56
2022/08/11 04:08:02;;;;;;;5.30;4.43;;;16.40;99.90;;;;;;5005354;28;20026;-53
2022/08/11 04:10:51;;;;;;;5.03;3.90;;;16.40;99.90;;;;;;5005487;28;20025;-58
2022/08/11 04:13:39;;;;;;;8.73;4.18;;;16.40;99.90;;;;;;5007171;28;20037;-53
2022/08/11 04:16:26;;;;;;;8.95;4.45;;;16.40;99.90;;;;;;4990439;28;20031;-56
2022/08/11 04:19:28;;;;;;;7.78;4.25;;;16.30;99.90;;;;;;4984787;28;20552;-58
2022/08/11 04:22:12;;;;;;;8.70;4.05;;;16.30;99.90;;;;;;4986109;28;20034;-56
2022/08/11 04:25:08;;;;;;;6.50;3.83;;;16.30;99.90;;;;;;4983802;28;20044;-58
2022/08/11 04:28:11;;;;;;;5.72;3.97;;;16.30;99.90;;;;;;4986313;28;20435;-54
2022/08/11 04:31:00;;;;;;;6.90;4.32;;;16.30;99.90;;;;;;4987892;28;20026;-58
2022/08/11 04:33:49;;;;;;;5.65;3.97;;;16.30;99.90;;;;;;4989142;28;20030;-58
2022/08/11 04:39:44;;;;;;;8.20;3.90;;;16.20;99.90;;;;;;4981438;28;20088;-58
2022/08/11 04:45:45;;;;;;;7.60;4.55;;;16.30;99.90;;;;;;4992208;28;20050;-59
2022/08/11 05:01:40;;;;;;;9.48;4.22;;;16.40;99.90;;;;;;4969690;28;20134;-59
2022/08/11 05:07:51;;;;;;;6.68;3.42;;;16.50;99.90;;;;;;4988855;28;20507;-62
2022/08/11 05:10:47;;;;;;;5.78;4.22;;;16.60;99.90;;;;;;4987920;28;20522;-62
2022/08/11 05:36:49;;;;;;;7.85;4.28;;;17.20;99.90;;;;;;4992398;28;20037;-62
2022/08/11 05:56:18;;;;;;;16.48;4.25;;;17.80;99.90;;;;;;4992057;28;20085;-61
2022/08/11 05:58:48;;;;;;;8.77;4.70;;;17.90;99.90;;;;;;4992991;28;20169;-61
2022/08/11 06:01:25;;;;;;;9.23;4.03;;;18.00;99.90;;;;;;4992588;28;20113;-58
2022/08/11 06:04:13;;;;;;;9.18;4.10;;;18.10;99.90;;;;;;4994310;28;20391;-56
2022/08/11 06:06:51;;;;;;;9.05;3.40;;;18.20;99.90;;;;;;4993428;28;20033;-60
2022/08/11 06:09:46;;;;;;;5.38;3.60;;;18.20;99.90;;;;;;4993228;28;20026;-59
2022/08/11 06:12:39;;;;;;;6.25;3.78;;;18.40;99.90;;;;;;4994056;28;20564;-60
2022/08/11 06:15:08;;;;;;;9.00;3.55;;;18.50;99.90;;;;;;4989410;28;20538;-61
2022/08/11 06:17:43;;;;;;;10.43;3.85;;;18.50;99.90;;;;;;4993137;28;20027;-61
2022/08/11 06:20:11;;;;;;;10.27;3.80;;;18.70;99.90;;;;;;4988044;28;20436;-61
2022/08/11 06:22:38;;;;;;;15.13;3.65;;;18.70;99.90;;;;;;4997856;28;20489;-61
2022/08/11 06:25:06;;;;;;;5.03;3.33;;;18.80;99.90;;;;;;4992149;28;20018;-61
2022/08/11 06:27:35;;;;;;;4.72;3.00;;;18.90;99.90;;;;;;4993010;28;20018;-62
2022/08/11 06:30:12;;;;;;;9.20;3.28;;;19.10;99.90;;;;;;4992287;28;20443;-62
2022/08/11 06:32:43;;;;;;;4.65;3.33;;;19.10;99.90;;;;;;4991862;28;20030;-60
2022/08/11 06:35:22;;;;;;;4.88;3.10;;;19.30;99.90;;;;;;4991106;28;20467;-59
2022/08/11 06:38:11;;;;;;;12.63;3.50;;;19.40;99.90;;;;;;4992079;28;20080;-62
2022/08/11 06:44:10;;;;;;;8.52;3.33;;;19.50;99.90;;;;;;4989128;28;20048;-61
2022/08/11 06:46:49;;;;;;;6.65;3.28;;;19.70;99.90;;;;;;4991621;28;20022;-61
2022/08/11 06:52:12;;;;;;;8.90;3.55;;;20.00;99.90;;;;;;4992128;28;20029;-62
2022/08/11 06:54:43;;;;;;;6.40;3.03;;;20.10;99.90;;;;;;4991455;28;20109;-63
2022/08/11 07:02:50;;;;;;;6.55;3.15;;;20.40;99.90;;;;;;4993369;28;20080;-62
2022/08/11 07:05:45;;;;;;;5.47;3.30;;;20.50;99.90;;;;;;4993279;28;20034;-62
2022/08/11 07:17:22;;;;;;;7.35;3.75;;;20.90;99.90;;;;;;4992702;28;20061;-62
2022/08/11 07:31:15;;;;;;;7.75;3.20;;;21.40;99.90;;;;;;4992586;28;20117;-62
2022/08/11 07:33:50;;;;;;;6.15;3.30;;;21.50;99.90;;;;;;5007693;28;20100;-61
2022/08/11 07:36:17;;;;;;;7.68;3.47;;;21.60;99.90;;;;;;4992072;28;20450;-62
2022/08/11 07:38:51;;;;;;;7.20;3.50;;;21.70;99.90;;;;;;4992199;28;20049;-60
2022/08/11 07:41:20;;;;;;;4.80;3.63;;;21.80;99.90;;;;;;4992313;28;20118;-60
2022/08/11 07:43:50;;;;;;;7.95;3.22;;;21.90;99.90;;;;;;4992159;28;20026;-62
2022/08/11 07:54:35;;;;;;;6.90;2.92;;;22.30;99.90;;;;;;4992365;28;20030;-56
2022/08/11 08:19:04;;;;;;;4.13;2.65;;;23.40;99.90;;;;;;5000989;28;20408;-60
2022/08/11 08:21:31;;;;;;;4.63;3.15;;;23.60;99.90;;;;;;4991935;28;20100;-62
2022/08/11 08:23:57;;;;;;;8.38;4.82;;;23.80;99.90;;;;;;4994195;28;20030;-62
2022/08/11 08:31:54;;;;;;;;;;;24.10;99.90;;;;;;4992956;28;20034;-60
2022/08/11 08:34:20;;;;;;;3.30;2.80;;;24.20;99.90;;;;;;4991873;28;19906;-59
2022/08/11 08:36:49;;;;;;;5.50;2.85;;;24.30;99.90;;;;;;4991407;28;20362;-61
2022/08/11 08:39:19;;;;;;;3.50;2.90;;;24.40;99.90;;;;;;4991604;28;20034;-59
2022/08/11 08:41:49;;;;;;;4.93;2.88;;;24.50;99.90;;;;;;4992003;28;20034;-60
2022/08/11 08:44:16;;;;;;;5.50;3.38;;;24.70;99.90;;;;;;4991814;28;20031;-60
2022/08/11 08:46:44;;;;;;;7.95;3.15;;;24.80;99.90;;;;;;4991364;28;20124;-59
2022/08/11 08:49:15;;;;;;;6.22;2.58;;;24.90;99.90;;;;;;4991739;28;20030;-59
2022/08/11 08:51:45;;;;;;;5.18;2.45;;;25.00;99.90;;;;;;4991664;28;20054;-57
2022/08/11 08:54:18;;;;;;;5.30;4.15;;;25.10;99.90;;;;;;4991648;28;20022;-57
2022/08/11 08:56:45;;;;;;;6.95;3.15;;;25.20;99.90;;;;;;4991290;28;20031;-60
2022/08/11 08:59:15;;;;;;;5.03;2.60;;;25.30;99.90;;;;;;4991770;28;20034;-59
2022/08/11 09:01:54;;;;;;;5.72;2.78;;;25.50;99.90;;;;;;4991532;28;20023;-61
2022/08/11 09:04:21;;;;;;;6.20;2.47;;;25.60;99.90;;;;;;4991547;28;20022;-60
2022/08/11 09:06:47;;;;;;;5.05;2.58;;;25.80;99.90;;;;;;4991042;28;20061;-61
2022/08/11 09:09:13;;;;;;;10.13;3.35;;;25.90;99.90;;;;;;4991231;28;20027;-59
2022/08/11 09:11:54;;;;;;;4.60;3.08;;;26.00;99.90;;;;;;4993992;28;20415;-62
2022/08/11 09:17:20;;;;;;;3.97;2.95;;;26.20;99.90;;;;;;4994955;28;20076;-61
2022/08/11 09:19:47;;;;;;;14.55;3.30;;;26.20;99.90;;;;;;4994876;28;20496;-60
2022/08/11 09:27:47;;;;;;;5.15;2.83;;;26.60;99.90;;;;;;4994748;28;20072;-59
2022/08/11 09:30:12;;;;;;;6.13;2.55;;;26.70;99.90;;;;;;4994748;28;20054;-61
2022/08/11 09:32:40;;;;;;;8.00;2.60;;;26.90;99.90;;;;;;4994621;28;20041;-60
2022/08/11 09:35:07;;;;;;;5.55;2.63;;;27.00;99.90;;;;;;4994552;28;20015;-59
2022/08/11 09:40:29;;;;;;;6.20;2.65;;;27.30;99.90;;;;;;4994784;28;20044;-61
2022/08/11 09:45:49;;;;;;;3.92;2.45;;;27.70;99.90;;;;;;4994509;28;20030;-61
2022/08/11 09:48:16;;;;;;;3.45;2.05;;;28.00;99.90;;;;;;4994258;28;20029;-60
2022/08/11 09:50:48;;;;;;;2.67;2.20;;;28.20;99.50;;;;;;4994230;28;20026;-60
2022/08/11 09:53:16;;;;;;;6.68;2.00;;;28.40;99.90;;;;;;4994378;28;20019;-61
2022/08/11 09:55:44;;;;;;;5.22;2.00;;;28.50;99.00;;;;;;4994053;28;20081;-63
2022/08/11 09:58:14;;;;;;;10.07;2.15;;;28.70;98.30;;;;;;4994306;28;20030;-61
2022/08/11 10:00:41;;;;;;;4.97;2.20;;;28.80;98.10;;;;;;4993590;28;20434;-62
2022/08/11 10:03:16;;;;;;;4.20;1.70;;;29.10;96.90;;;;;;4994090;28;20058;-61
2022/08/11 10:08:32;;;;;;;6.70;2.30;;;29.20;94.00;;;;;;5012206;28;20089;-57
2022/08/11 10:10:59;;;;;;;2.47;2.22;;;29.20;96.20;;;;;;5012925;28;20499;-57
2022/08/11 10:15:32;;;;;;;6.95;2.50;;;29.40;96.10;;;;;;5013155;28;20022;-56
2022/08/11 10:16:26;;;;;;;3.03;2.30;;;29.50;94.10;;;;;;5012088;28;20026;-56
2022/08/11 10:18:54;;;;;;;2.67;2.05;;;29.60;94.80;;;;;;5012363;28;20054;-57
2022/08/11 10:21:38;;;;;;;11.02;2.58;;;29.60;93.10;;;;;;5011970;28;20029;-58
2022/08/11 10:26:57;;;;;;;5.93;2.47;;;29.80;92.60;;;;;;5011729;28;20032;-57
2022/08/11 10:35:12;;;;;;;6.05;3.28;;;30.60;90.90;;;;;;5012059;28;20076;-56
2022/08/11 10:37:39;;;;;;;8.48;2.30;;;30.70;91.10;;;;;;5010938;28;20026;-56
2022/08/11 10:40:07;;;;;;;5.78;2.00;;;30.80;90.90;;;;;;5011808;28;20068;-58
2022/08/11 10:48:04;;;;;;;7.63;2.30;;;30.90;86.20;;;;;;5011635;28;20096;-56
2022/08/11 10:58:48;;;;;;;1.55;1.45;;;31.30;85.60;;;;;;5014807;28;20032;-58
2022/08/11 11:01:28;;;;;;;2.08;1.85;;;31.30;86.20;;;;;;5009288;28;20030;-57
2022/08/11 11:04:12;;;;;;;4.25;2.38;;;31.50;86.80;;;;;;5011715;28;20026;-57
2022/08/11 11:06:49;;;;;;;2.63;1.50;;;31.70;80.80;;;;;;5009433;28;20026;-56
2022/08/11 11:09:24;;;;;;;6.20;2.90;;;31.90;82.70;;;;;;5009509;28;20036;-57
2022/08/11 11:20:44;;;;;;;8.20;2.13;;;31.70;80.00;;;;;;5004971;28;20048;-54
2022/08/11 11:23:34;;;;;;;4.55;2.10;;;32.00;77.70;;;;;;5005693;28;20034;-58
2022/08/11 11:26:45;;;;;;;3.63;2.65;;;32.30;80.60;;;;;;5001230;28;20037;-56
2022/08/11 11:29:14;;;;;;;2.72;1.90;;;32.30;81.20;;;;;;5005617;28;20168;-59
2022/08/11 11:32:03;;;;;;;4.93;2.00;;;32.80;77.40;;;;;;5015293;28;20033;-58
2022/08/11 11:34:47;;;;;;;4.50;2.03;;;33.00;74.90;;;;;;5010605;28;20030;-59
2022/08/11 11:37:16;;;;;;;38.20;3.17;;;32.80;78.00;;;;;;5006563;28;20065;-58
2022/08/11 11:39:42;;;;;;;5.63;2.13;;;32.70;77.10;;;;;;5009793;28;20057;-59
2022/08/11 11:42:10;;;;;;;2.22;1.92;;;32.90;80.50;;;;;;5014197;28;20040;-58
2022/08/11 11:44:38;;;;;;;4.10;2.47;;;32.80;78.20;;;;;;5011591;28;20578;-56
2022/08/11 11:47:05;;;;;;;2.08;1.80;;;33.10;76.10;;;;;;5010470;28;20420;-58
2022/08/11 11:49:38;;;;;;;5.50;2.15;;;33.30;71.50;;;;;;5005732;28;20083;-57
2022/08/11 11:52:06;;;;;;;2.83;2.38;;;33.60;70.30;;;;;;5009501;28;20036;-58
2022/08/11 11:54:35;;;;;;;4.55;2.30;;;33.30;73.80;;;;;;5009532;28;20026;-59
2022/08/11 12:02:39;;;;;;;7.80;1.98;;;33.20;77.90;;;;;;5028694;28;20096;-60
2022/08/11 12:05:07;;;;;;;3.15;2.00;;;33.50;67.00;;;;;;5009774;28;20050;-59
2022/08/11 12:10:24;;;;;;;4.40;2.30;;;33.30;72.30;;;;;;5005494;28;20032;-59
2022/08/11 12:15:35;;;;;;;2.75;2.10;;;33.20;68.50;;;;;;5011203;28;20034;-60
2022/08/11 12:18:04;;;;;;;4.97;2.10;;;33.40;70.50;;;;;;5028822;28;20480;-60
2022/08/11 12:20:34;;;;;;;5.30;2.13;;;33.80;69.80;;;;;;5016539;28;20033;-61
2022/08/11 12:28:30;;;;;;;3.33;2.00;;;33.70;69.10;;;;;;5022610;28;20041;-60
2022/08/11 12:30:56;;;;;;;8.88;2.22;;;33.50;65.80;;;;;;5009876;28;20087;-64
2022/08/11 12:33:22;;;;;;;8.43;2.22;;;33.60;67.50;;;;;;5017515;28;20073;-61
2022/08/11 12:35:56;;;;;;;9.05;2.25;;;34.00;64.90;;;;;;5003136;28;20041;-62
2022/08/11 12:38:22;;;;;;;4.25;2.40;;;33.50;65.70;;;;;;5003840;28;20026;-62
2022/08/11 12:46:23;;;;;;;13.07;2.53;;;34.10;71.50;;;;;;5009460;28;20442;-61
2022/08/11 12:51:57;;;;;;;11.55;2.30;;;34.30;64.30;;;;;;5016663;28;20114;-61
2022/08/11 12:54:58;;;;;;;6.95;2.20;;;34.20;65.20;;;;;;5005486;28;20430;-62
2022/08/11 13:06:00;;;;;;;3.72;2.30;;;34.40;65.50;;;;;;5013282;28;20256;-62
2022/08/11 13:08:30;;;;;;;1.92;1.70;;;34.50;62.90;;;;;;5016757;28;20057;-61
2022/08/11 13:13:46;;;;;;;4.80;2.08;;;35.10;62.30;;;;;;5013924;28;20036;-62
2022/08/11 13:16:13;;;;;;;2.50;1.80;;;35.30;65.30;;;;;;5012605;28;20551;-61
2022/08/11 13:18:41;;;;;;;4.30;2.15;;;35.40;62.80;;;;;;5013245;28;20021;-62
2022/08/11 13:21:10;;;;;;;5.18;2.20;;;35.00;61.90;;;;;;5021985;28;20506;-62
2022/08/11 13:23:37;;;;;;;3.58;2.42;;;34.60;61.10;;;;;;5011314;28;20540;-61
2022/08/11 13:26:04;;;;;;;4.38;2.28;;;34.40;64.60;;;;;;5019906;28;20026;-62
2022/08/11 13:28:31;;;;;;;7.20;1.90;;;34.70;61.00;;;;;;5012581;28;20026;-62
2022/08/11 13:31:13;;;;;;;5.63;1.83;;;34.30;61.20;;;;;;5023968;28;20030;-60
2022/08/11 13:33:48;;;;;;;10.65;2.58;;;34.00;62.10;;;;;;5013140;28;20026;-61
2022/08/11 13:36:19;;;;;;;15.80;2.58;;;34.10;61.90;;;;;;5012665;28;20097;-61
2022/08/11 13:38:46;;;;;;;5.05;1.70;;;34.20;62.90;;;;;;5007281;28;20032;-61
2022/08/11 13:43:57;;;;;;;3.90;2.30;;;34.10;59.20;;;;;;5013423;28;20613;-61
2022/08/11 13:46:26;;;;;;;4.28;2.08;;;34.80;58.70;;;;;;5011482;28;20022;-61
2022/08/11 13:48:54;;;;;;;2.50;2.13;;;35.20;58.60;;;;;;5017645;28;20141;-60
2022/08/11 13:51:32;;;;;;;2.25;1.98;;;35.50;56.90;;;;;;5019117;28;20077;-62
2022/08/11 13:54:18;;;;;;;8.68;2.40;;;35.20;58.90;;;;;;5017520;28;20036;-61
2022/08/11 13:56:47;;;;;;;3.83;1.85;;;35.40;59.00;;;;;;5026675;28;20030;-61
2022/08/11 13:59:14;;;;;;;4.85;2.08;;;35.50;59.20;;;;;;5020316;28;20021;-61
2022/08/11 14:01:47;;;;;;;2.63;2.15;;;35.50;57.10;;;;;;5029120;28;20045;-61
2022/08/11 14:04:27;;;;;;;6.47;1.97;;;35.80;57.60;;;;;;5012614;28;20506;-62
2022/08/11 14:06:54;;;;;;;2.72;2.08;;;35.10;58.10;;;;;;5012407;28;20407;-61
2022/08/11 14:09:25;;;;;;;2.92;1.83;;;35.00;59.20;;;;;;5031041;28;20411;-62
2022/08/11 14:14:42;;;;;;;4.90;2.30;;;35.40;59.20;;;;;;5008057;28;20511;-62
2022/08/11 14:17:08;;;;;;;6.60;2.28;;;34.90;59.20;;;;;;5011137;28;20025;-62
2022/08/11 14:19:43;;;;;;;2.97;2.13;;;34.80;58.30;;;;;;5009473;28;20068;-61
2022/08/11 14:22:12;;;;;;;2.78;2.10;;;34.70;58.20;;;;;;5013159;28;20101;-59
2022/08/11 14:24:40;;;;;;;7.50;2.30;;;34.40;59.10;;;;;;5009435;28;20037;-61
2022/08/11 14:27:08;;;;;;;9.80;2.53;;;34.80;58.60;;;;;;5012756;28;20029;-62
2022/08/11 14:29:37;;;;;;;5.05;2.05;;;34.30;60.50;;;;;;5005134;28;20030;-61
2022/08/11 14:32:05;;;;;;;9.38;2.50;;;34.70;57.30;;;;;;5005020;28;20408;-61
2022/08/11 14:34:33;;;;;;;6.03;2.35;;;34.10;58.20;;;;;;5008892;28;20022;-61
2022/08/11 14:37:24;;;;;;;6.35;2.65;;;34.30;58.40;;;;;;5015919;28;20026;-61
2022/08/11 14:39:55;;;;;;;2.20;1.75;;;33.70;58.30;;;;;;5005698;28;20041;-61
2022/08/11 14:48:07;;;;;;;11.83;3.00;;;34.30;58.00;;;;;;5008902;28;20040;-59
2022/08/11 14:50:33;;;;;;;4.20;2.33;;;34.50;57.70;;;;;;5024454;28;20036;-57
2022/08/11 14:53:07;;;;;;;3.22;1.75;;;34.00;57.80;;;;;;4992870;28;20080;-58
2022/08/11 14:58:27;;;;;;;11.18;2.70;;;34.90;56.40;;;;;;5010596;28;20064;-58
2022/08/11 15:00:55;;;;;;;9.55;2.20;;;34.40;56.80;;;;;;5007447;28;20064;-56
2022/08/11 15:03:23;;;;;;;14.70;2.67;;;33.90;56.60;;;;;;5018366;28;20076;-58
2022/08/11 15:05:55;;;;;;;4.90;2.67;;;34.20;58.00;;;;;;5005974;28;20026;-56
2022/08/11 15:08:53;;;;;;;4.78;2.47;;;34.30;57.30;;;;;;5003500;28;20040;-59
2022/08/11 15:13:58;;;;;;;4.13;3.03;;;34.60;56.20;;;;;;5006920;28;20049;-57
2022/08/11 15:17:07;;;;;;;6.40;2.15;;;34.10;56.20;;;;;;5027139;28;20032;-59
2022/08/11 15:19:15;;;;;;;2.92;2.30;;;34.30;57.40;;;;;;4996924;28;20643;-57
2022/08/11 15:24:25;;;;;;;;;;;34.80;57.70;;;;;;5010714;28;20045;-58
2022/08/11 15:38:05;;;;;;;9.00;2.33;;;34.20;55.90;;;;;;5012400;28;20076;-57
2022/08/11 15:46:32;;;;;;;4.90;2.20;;;34.90;53.70;;;;;;5008201;28;20033;-57
2022/08/11 15:49:03;;;;;;;6.70;2.10;;;34.60;54.60;;;;;;5015187;28;20041;-57
2022/08/11 15:51:36;;;;;;;6.82;2.13;;;34.70;54.20;;;;;;5006707;28;20014;-56
2022/08/11 15:54:11;;;;;;;2.97;2.25;;;34.80;55.70;;;;;;5000803;28;20030;-59
2022/08/11 15:56:41;;;;;;;3.88;2.38;;;34.70;57.20;;;;;;4999932;28;20029;-58
2022/08/11 16:04:41;;;;;;;3.30;2.20;;;34.80;57.60;;;;;;5014831;28;20025;-57
2022/08/11 16:07:10;;;;;;;7.55;2.53;;;34.70;55.90;;;;;;5008580;28;20418;-57
2022/08/11 16:10:08;;;;;;;6.38;2.45;;;34.40;55.40;;;;;;5014262;28;20104;-57
2022/08/11 16:16:12;;;;;;;4.68;2.20;;;34.00;56.90;;;;;;5004916;28;20033;-56
2022/08/11 16:18:15;;;;;;;3.63;2.10;;;33.60;56.60;;;;;;5034501;22;20345;-61
2022/08/11 16:20:42;;;;;;;2.72;2.53;;;34.00;55.20;;;;;;5027380;28;20033;-61
2022/08/11 16:23:09;;;;;;;3.72;2.45;;;33.80;58.30;;;;;;5026724;28;20104;-61
2022/08/11 16:25:35;;;;;;;7.10;2.50;;;34.40;58.10;;;;;;5030343;28;20104;-58
2022/08/11 16:28:05;;;;;;;5.03;2.80;;;34.10;57.50;;;;;;5023750;28;20105;-60
2022/08/11 16:30:36;;;;;;;7.57;2.40;;;33.60;56.60;;;;;;5029322;28;20025;-59
2022/08/11 16:33:05;;;;;;;7.88;2.50;;;33.70;57.10;;;;;;5028768;28;20428;-62
2022/08/11 16:38:34;;;;;;;2.85;2.30;;;33.80;57.70;;;;;;5026206;28;20090;-61
2022/08/11 16:41:02;;;;;;;3.88;2.30;;;33.80;55.70;;;;;;5028327;28;20025;-62
2022/08/11 16:49:18;;;;;;;7.03;2.95;;;33.10;57.00;;;;;;5030326;28;20545;-63
2022/08/11 16:51:44;;;;;;;4.85;2.92;;;32.40;56.40;;;;;;5029489;28;20028;-61
2022/08/11 16:54:11;;;;;;;2.97;2.63;;;32.30;58.10;;;;;;5030230;28;20018;-60
2022/08/11 16:56:38;;;;;;;3.63;2.28;;;32.40;59.70;;;;;;5027013;28;20415;-61
2022/08/11 16:59:15;;;;;;;4.40;2.20;;;32.10;59.40;;;;;;5035211;28;20084;-62
2022/08/11 17:02:11;;;;;;;8.82;2.92;;;32.20;61.10;;;;;;5032935;28;20116;-63
2022/08/11 17:13:15;;;;;;;5.82;2.28;;;31.50;58.60;;;;;;5036569;28;20422;-63
2022/08/11 17:18:42;;;;;;;4.05;3.08;;;31.50;59.50;;;;;;5019573;28;20055;-61
2022/08/11 17:21:15;;;;;;;4.75;2.38;;;31.40;59.90;;;;;;5024606;28;20025;-62
2022/08/11 17:23:45;;;;;;;4.65;2.75;;;31.40;60.90;;;;;;5024185;28;20097;-62
2022/08/11 17:26:16;;;;;;;2.95;2.60;;;31.20;59.70;;;;;;5024575;28;20082;-61
2022/08/11 17:28:43;;;;;;;3.58;2.88;;;31.00;61.00;;;;;;5021512;28;20383;-63
2022/08/11 17:36:43;;;;;;;5.15;2.40;;;31.00;59.60;;;;;;5026790;28;20047;-61
2022/08/11 17:39:11;;;;;;;4.38;2.80;;;31.00;61.00;;;;;;5022373;28;20080;-64
2022/08/11 17:49:55;;;;;;;19.75;4.47;;;30.90;60.10;;;;;;5022546;28;20028;-63
2022/08/11 18:00:39;;;;;;;6.03;3.88;;;30.50;61.50;;;;;;5026041;28;20162;-58
2022/08/11 18:05:51;;;;;;;4.25;3.67;;;30.30;63.00;;;;;;5023811;28;20044;-63
